CYVR

Vancouver International Airport

Vancouver, , Canada
METAR CYVR 231000Z 10008KT 20SM FEW040 FEW130 BKN230 M03/M05 A3043 RMK SC1AC1CS4 SC TR SLP307
Observed Flight Rules
Feb-23 @ 10:00 UTC (30 minutes ago) Visual Flight Rules
Wind Visibility Clouds
100° at 8 knots 20 miles
  • Few at 4,000' AGL
  • Few at 13,000' AGL
  • Broken at 23,000' AGL
Temperatures Readings
Current -3°C / 27°F
Dewpoint -5°C / 23°F
Humidity 86%
Altimeter 30.43" Hg
Pressure 1030.7 hPa
Elevation 2
METAR CYVR 231000Z 10008KT 20SM FEW040 FEW130 BKN230 M03/M05 A3043 RMK SC1AC1CS4 SC TR SLP307
Observed Flight Rules
Feb-23 @ 10:00 UTC
(30 minutes ago)
VFR
Wind Visibility
100° at 8 knots 20 miles
Clouds
  • Few at 4,000' AGL
  • Few at 13,000' AGL
  • Broken at 23,000' AGL
Temperature Dewpoint
-3°C / 27°F -5°C / 23°F
Humidity Altimeter Pressure
86% 30.43" Hg 1030.7 hPa